sensor_id;sensor_type;location;lat;lon;timestamp;P1;durP1;ratioP1;P2;durP2;ratioP2
42000;SDS011;27689;48.390;10.856;2023-02-15T00:01:59;16.42;;;12.57;;
42000;SDS011;27689;48.390;10.856;2023-02-15T00:04:43;20.67;;;14.00;;
42000;SDS011;27689;48.390;10.856;2023-02-15T00:07:30;24.73;;;15.00;;
42000;SDS011;27689;48.390;10.856;2023-02-15T00:10:14;123.90;;;18.73;;
42000;SDS011;27689;48.390;10.856;2023-02-15T00:12:59;46.90;;;16.73;;
42000;SDS011;27689;48.390;10.856;2023-02-15T00:15:44;24.60;;;15.02;;
42000;SDS011;27689;48.390;10.856;2023-02-15T00:18:27;19.40;;;14.30;;
42000;SDS011;27689;48.390;10.856;2023-02-15T00:21:11;18.83;;;13.40;;
42000;SDS011;27689;48.390;10.856;2023-02-15T00:23:56;19.88;;;13.40;;
42000;SDS011;27689;48.390;10.856;2023-02-15T00:26:42;18.75;;;13.52;;
42000;SDS011;27689;48.390;10.856;2023-02-15T00:29:27;18.75;;;12.88;;
42000;SDS011;27689;48.390;10.856;2023-02-15T00:32:11;21.42;;;13.85;;
42000;SDS011;27689;48.390;10.856;2023-02-15T00:34:55;39.25;;;15.68;;
42000;SDS011;27689;48.390;10.856;2023-02-15T00:37:39;97.22;;;18.85;;
42000;SDS011;27689;48.390;10.856;2023-02-15T00:40:23;23.02;;;16.00;;
42000;SDS011;27689;48.390;10.856;2023-02-15T00:43:07;24.70;;;16.95;;
42000;SDS011;27689;48.390;10.856;2023-02-15T00:45:51;123.32;;;19.30;;
42000;SDS011;27689;48.390;10.856;2023-02-15T00:48:35;95.47;;;17.55;;
42000;SDS011;27689;48.390;10.856;2023-02-15T00:51:19;54.55;;;17.63;;
42000;SDS011;27689;48.390;10.856;2023-02-15T00:54:04;76.97;;;18.02;;
42000;SDS011;27689;48.390;10.856;2023-02-15T00:56:48;143.30;;;21.05;;
42000;SDS011;27689;48.390;10.856;2023-02-15T00:59:32;51.97;;;18.45;;
42000;SDS011;27689;48.390;10.856;2023-02-15T01:02:17;26.38;;;17.88;;
42000;SDS011;27689;48.390;10.856;2023-02-15T01:05:01;23.92;;;15.85;;
42000;SDS011;27689;48.390;10.856;2023-02-15T01:07:45;23.35;;;16.38;;
42000;SDS011;27689;48.390;10.856;2023-02-15T01:10:29;21.92;;;15.63;;
42000;SDS011;27689;48.390;10.856;2023-02-15T01:13:14;22.05;;;15.18;;
42000;SDS011;27689;48.390;10.856;2023-02-15T01:15:59;20.63;;;14.68;;
42000;SDS011;27689;48.390;10.856;2023-02-15T01:18:43;23.88;;;15.32;;
42000;SDS011;27689;48.390;10.856;2023-02-15T01:21:27;20.63;;;13.77;;
42000;SDS011;27689;48.390;10.856;2023-02-15T01:24:12;52.40;;;17.60;;
42000;SDS011;27689;48.390;10.856;2023-02-15T01:26:56;32.72;;;16.63;;
42000;SDS011;27689;48.390;10.856;2023-02-15T01:29:40;72.22;;;18.08;;
42000;SDS011;27689;48.390;10.856;2023-02-15T01:32:24;63.35;;;17.08;;
42000;SDS011;27689;48.390;10.856;2023-02-15T01:35:09;46.28;;;16.65;;
42000;SDS011;27689;48.390;10.856;2023-02-15T01:37:54;40.05;;;17.42;;
42000;SDS011;27689;48.390;10.856;2023-02-15T01:40:39;68.35;;;21.80;;
42000;SDS011;27689;48.390;10.856;2023-02-15T01:43:24;136.68;;;22.25;;
42000;SDS011;27689;48.390;10.856;2023-02-15T01:49:24;91.18;;;19.48;;
42000;SDS011;27689;48.390;10.856;2023-02-15T01:52:11;133.02;;;21.42;;
42000;SDS011;27689;48.390;10.856;2023-02-15T01:54:59;25.00;;;16.80;;
42000;SDS011;27689;48.390;10.856;2023-02-15T01:57:43;24.48;;;17.30;;
42000;SDS011;27689;48.390;10.856;2023-02-15T02:00:30;31.50;;;17.13;;
42000;SDS011;27689;48.390;10.856;2023-02-15T02:03:16;146.80;;;24.65;;
42000;SDS011;27689;48.390;10.856;2023-02-15T02:06:07;98.20;;;20.58;;
42000;SDS011;27689;48.390;10.856;2023-02-15T02:08:52;180.70;;;24.90;;
42000;SDS011;27689;48.390;10.856;2023-02-15T02:11:38;29.73;;;19.20;;
42000;SDS011;27689;48.390;10.856;2023-02-15T02:14:23;26.02;;;17.30;;
42000;SDS011;27689;48.390;10.856;2023-02-15T02:17:22;25.88;;;17.25;;
42000;SDS011;27689;48.390;10.856;2023-02-15T02:20:19;57.08;;;17.50;;
42000;SDS011;27689;48.390;10.856;2023-02-15T02:35:15;111.10;;;22.88;;
42000;SDS011;27689;48.390;10.856;2023-02-15T02:38:08;108.50;;;22.98;;
42000;SDS011;27689;48.390;10.856;2023-02-15T02:47:08;36.97;;;19.85;;
42000;SDS011;27689;48.390;10.856;2023-02-15T02:50:01;71.20;;;20.25;;
42000;SDS011;27689;48.390;10.856;2023-02-15T02:52:50;76.40;;;20.00;;
42000;SDS011;27689;48.390;10.856;2023-02-15T02:55:38;31.60;;;17.63;;
42000;SDS011;27689;48.390;10.856;2023-02-15T02:58:33;77.40;;;19.88;;
42000;SDS011;27689;48.390;10.856;2023-02-15T03:04:32;65.28;;;19.13;;
42000;SDS011;27689;48.390;10.856;2023-02-15T03:07:21;62.17;;;18.13;;
42000;SDS011;27689;48.390;10.856;2023-02-15T03:10:06;77.88;;;20.17;;
42000;SDS011;27689;48.390;10.856;2023-02-15T03:12:52;160.88;;;23.25;;
42000;SDS011;27689;48.390;10.856;2023-02-15T03:15:36;41.28;;;17.73;;
42000;SDS011;27689;48.390;10.856;2023-02-15T03:18:43;57.22;;;19.23;;
42000;SDS011;27689;48.390;10.856;2023-02-15T03:21:44;57.33;;;18.75;;
42000;SDS011;27689;48.390;10.856;2023-02-15T03:24:55;26.25;;;17.10;;
42000;SDS011;27689;48.390;10.856;2023-02-15T03:27:47;141.13;;;20.35;;
42000;SDS011;27689;48.390;10.856;2023-02-15T03:30:35;62.47;;;20.23;;
42000;SDS011;27689;48.390;10.856;2023-02-15T03:33:22;29.10;;;17.13;;
42000;SDS011;27689;48.390;10.856;2023-02-15T03:39:20;67.75;;;19.02;;
42000;SDS011;27689;48.390;10.856;2023-02-15T03:45:25;29.88;;;18.20;;
42000;SDS011;27689;48.390;10.856;2023-02-15T03:48:13;24.50;;;16.38;;
42000;SDS011;27689;48.390;10.856;2023-02-15T03:51:00;27.65;;;17.98;;
42000;SDS011;27689;48.390;10.856;2023-02-15T03:56:57;38.08;;;18.63;;
42000;SDS011;27689;48.390;10.856;2023-02-15T04:00:25;132.45;;;21.17;;
42000;SDS011;27689;48.390;10.856;2023-02-15T04:06:18;45.33;;;16.58;;
42000;SDS011;27689;48.390;10.856;2023-02-15T04:09:02;26.48;;;16.98;;
42000;SDS011;27689;48.390;10.856;2023-02-15T04:12:04;62.58;;;16.63;;
42000;SDS011;27689;48.390;10.856;2023-02-15T04:14:48;47.50;;;16.70;;
42000;SDS011;27689;48.390;10.856;2023-02-15T04:17:51;105.70;;;17.45;;
42000;SDS011;27689;48.390;10.856;2023-02-15T04:20:35;80.75;;;18.48;;
42000;SDS011;27689;48.390;10.856;2023-02-15T04:23:38;159.25;;;20.55;;
42000;SDS011;27689;48.390;10.856;2023-02-15T04:26:40;20.88;;;14.65;;
42000;SDS011;27689;48.390;10.856;2023-02-15T04:29:25;31.98;;;16.02;;
42000;SDS011;27689;48.390;10.856;2023-02-15T04:32:10;101.57;;;19.73;;
42000;SDS011;27689;48.390;10.856;2023-02-15T04:34:54;20.40;;;14.43;;
42000;SDS011;27689;48.390;10.856;2023-02-15T04:37:38;87.05;;;18.52;;
42000;SDS011;27689;48.390;10.856;2023-02-15T04:43:06;68.13;;;17.63;;
42000;SDS011;27689;48.390;10.856;2023-02-15T04:45:50;52.28;;;17.90;;
42000;SDS011;27689;48.390;10.856;2023-02-15T04:48:35;127.70;;;20.50;;
42000;SDS011;27689;48.390;10.856;2023-02-15T04:51:19;74.97;;;16.33;;
42000;SDS011;27689;48.390;10.856;2023-02-15T04:54:02;52.60;;;19.10;;
42000;SDS011;27689;48.390;10.856;2023-02-15T04:56:47;65.82;;;17.75;;
42000;SDS011;27689;48.390;10.856;2023-02-15T04:59:30;123.20;;;21.13;;
42000;SDS011;27689;48.390;10.856;2023-02-15T05:02:14;53.70;;;20.02;;
42000;SDS011;27689;48.390;10.856;2023-02-15T05:04:59;58.30;;;19.92;;
42000;SDS011;27689;48.390;10.856;2023-02-15T05:07:43;90.97;;;21.85;;
42000;SDS011;27689;48.390;10.856;2023-02-15T05:10:26;47.28;;;14.68;;
42000;SDS011;27689;48.390;10.856;2023-02-15T05:13:11;42.08;;;19.17;;
42000;SDS011;27689;48.390;10.856;2023-02-15T05:15:54;27.15;;;17.58;;
42000;SDS011;27689;48.390;10.856;2023-02-15T05:18:39;57.08;;;18.42;;
42000;SDS011;27689;48.390;10.856;2023-02-15T05:21:23;29.20;;;17.63;;
42000;SDS011;27689;48.390;10.856;2023-02-15T05:24:07;21.17;;;15.00;;
42000;SDS011;27689;48.390;10.856;2023-02-15T05:27:10;67.13;;;19.80;;
42000;SDS011;27689;48.390;10.856;2023-02-15T05:30:14;33.42;;;18.25;;
42000;SDS011;27689;48.390;10.856;2023-02-15T05:32:57;23.85;;;16.58;;
42000;SDS011;27689;48.390;10.856;2023-02-15T05:35:41;37.58;;;19.52;;
42000;SDS011;27689;48.390;10.856;2023-02-15T05:38:25;52.78;;;21.75;;
42000;SDS011;27689;48.390;10.856;2023-02-15T05:41:09;29.25;;;16.00;;
42000;SDS011;27689;48.390;10.856;2023-02-15T05:43:54;51.88;;;19.27;;
42000;SDS011;27689;48.390;10.856;2023-02-15T05:46:39;47.33;;;20.55;;
42000;SDS011;27689;48.390;10.856;2023-02-15T05:49:23;40.83;;;21.42;;
42000;SDS011;27689;48.390;10.856;2023-02-15T05:52:07;35.55;;;20.27;;
42000;SDS011;27689;48.390;10.856;2023-02-15T05:54:51;45.85;;;22.35;;
42000;SDS011;27689;48.390;10.856;2023-02-15T05:57:35;63.60;;;23.58;;
42000;SDS011;27689;48.390;10.856;2023-02-15T06:00:19;37.00;;;20.63;;
42000;SDS011;27689;48.390;10.856;2023-02-15T06:03:04;62.28;;;22.05;;
42000;SDS011;27689;48.390;10.856;2023-02-15T06:05:48;72.40;;;23.38;;
42000;SDS011;27689;48.390;10.856;2023-02-15T06:11:17;31.42;;;17.70;;
42000;SDS011;27689;48.390;10.856;2023-02-15T06:14:01;51.65;;;20.17;;
42000;SDS011;27689;48.390;10.856;2023-02-15T06:16:45;27.92;;;18.25;;
42000;SDS011;27689;48.390;10.856;2023-02-15T06:19:29;29.00;;;17.73;;
42000;SDS011;27689;48.390;10.856;2023-02-15T06:22:13;39.60;;;18.60;;
42000;SDS011;27689;48.390;10.856;2023-02-15T06:24:57;38.13;;;19.05;;
42000;SDS011;27689;48.390;10.856;2023-02-15T06:27:41;39.05;;;20.27;;
42000;SDS011;27689;48.390;10.856;2023-02-15T06:30:26;49.35;;;19.20;;
42000;SDS011;27689;48.390;10.856;2023-02-15T06:33:10;63.05;;;20.55;;
42000;SDS011;27689;48.390;10.856;2023-02-15T06:35:54;53.97;;;21.52;;
42000;SDS011;27689;48.390;10.856;2023-02-15T06:38:38;25.50;;;17.70;;
42000;SDS011;27689;48.390;10.856;2023-02-15T06:41:22;37.03;;;20.23;;
42000;SDS011;27689;48.390;10.856;2023-02-15T06:46:50;35.33;;;19.00;;
42000;SDS011;27689;48.390;10.856;2023-02-15T06:49:34;92.53;;;21.73;;
42000;SDS011;27689;48.390;10.856;2023-02-15T06:52:18;28.77;;;19.45;;
42000;SDS011;27689;48.390;10.856;2023-02-15T06:55:02;40.22;;;21.08;;
42000;SDS011;27689;48.390;10.856;2023-02-15T06:57:48;26.77;;;18.52;;
42000;SDS011;27689;48.390;10.856;2023-02-15T07:00:32;34.28;;;18.88;;
42000;SDS011;27689;48.390;10.856;2023-02-15T07:03:16;37.45;;;19.77;;
42000;SDS011;27689;48.390;10.856;2023-02-15T07:06:00;24.35;;;16.00;;
42000;SDS011;27689;48.390;10.856;2023-02-15T07:08:47;61.63;;;19.67;;
42000;SDS011;27689;48.390;10.856;2023-02-15T07:11:31;40.95;;;20.42;;
42000;SDS011;27689;48.390;10.856;2023-02-15T07:14:33;24.35;;;17.30;;
42000;SDS011;27689;48.390;10.856;2023-02-15T07:17:17;28.23;;;17.83;;
42000;SDS011;27689;48.390;10.856;2023-02-15T07:20:06;47.78;;;20.67;;
42000;SDS011;27689;48.390;10.856;2023-02-15T07:22:53;22.48;;;16.67;;
42000;SDS011;27689;48.390;10.856;2023-02-15T07:25:36;34.47;;;18.73;;
42000;SDS011;27689;48.390;10.856;2023-02-15T07:28:20;27.95;;;17.92;;
42000;SDS011;27689;48.390;10.856;2023-02-15T07:31:05;29.63;;;18.38;;
42000;SDS011;27689;48.390;10.856;2023-02-15T07:33:49;44.97;;;19.55;;
42000;SDS011;27689;48.390;10.856;2023-02-15T07:36:33;27.13;;;18.00;;
42000;SDS011;27689;48.390;10.856;2023-02-15T07:39:17;40.78;;;20.95;;
42000;SDS011;27689;48.390;10.856;2023-02-15T07:42:01;24.73;;;17.52;;
42000;SDS011;27689;48.390;10.856;2023-02-15T07:44:45;27.98;;;19.42;;
42000;SDS011;27689;48.390;10.856;2023-02-15T07:50:13;27.60;;;17.63;;
42000;SDS011;27689;48.390;10.856;2023-02-15T07:52:57;28.08;;;17.23;;
42000;SDS011;27689;48.390;10.856;2023-02-15T07:55:42;43.17;;;20.27;;
42000;SDS011;27689;48.390;10.856;2023-02-15T07:58:26;54.83;;;16.15;;
42000;SDS011;27689;48.390;10.856;2023-02-15T08:01:33;42.78;;;20.58;;
42000;SDS011;27689;48.390;10.856;2023-02-15T08:04:19;34.53;;;19.60;;
42000;SDS011;27689;48.390;10.856;2023-02-15T08:07:03;58.05;;;22.08;;
42000;SDS011;27689;48.390;10.856;2023-02-15T08:09:48;37.60;;;22.05;;
42000;SDS011;27689;48.390;10.856;2023-02-15T08:12:32;51.97;;;22.13;;
42000;SDS011;27689;48.390;10.856;2023-02-15T08:15:15;51.67;;;22.27;;
42000;SDS011;27689;48.390;10.856;2023-02-15T08:17:59;36.05;;;21.42;;
42000;SDS011;27689;48.390;10.856;2023-02-15T08:20:48;31.15;;;20.73;;
42000;SDS011;27689;48.390;10.856;2023-02-15T08:23:33;31.42;;;20.67;;
42000;SDS011;27689;48.390;10.856;2023-02-15T08:26:17;28.23;;;18.83;;
42000;SDS011;27689;48.390;10.856;2023-02-15T08:29:01;40.53;;;20.40;;
42000;SDS011;27689;48.390;10.856;2023-02-15T08:31:47;24.80;;;17.17;;
42000;SDS011;27689;48.390;10.856;2023-02-15T08:34:32;24.85;;;18.52;;
42000;SDS011;27689;48.390;10.856;2023-02-15T08:37:18;47.40;;;19.55;;
42000;SDS011;27689;48.390;10.856;2023-02-15T08:40:02;29.17;;;18.85;;
42000;SDS011;27689;48.390;10.856;2023-02-15T08:42:46;31.52;;;20.13;;
42000;SDS011;27689;48.390;10.856;2023-02-15T08:45:30;42.97;;;22.77;;
42000;SDS011;27689;48.390;10.856;2023-02-15T08:48:13;35.50;;;18.53;;
42000;SDS011;27689;48.390;10.856;2023-02-15T08:50:57;31.23;;;20.95;;
42000;SDS011;27689;48.390;10.856;2023-02-15T08:53:42;29.73;;;19.48;;
42000;SDS011;27689;48.390;10.856;2023-02-15T08:56:29;36.90;;;21.42;;
42000;SDS011;27689;48.390;10.856;2023-02-15T08:59:16;39.90;;;22.83;;
42000;SDS011;27689;48.390;10.856;2023-02-15T09:02:02;40.10;;;22.85;;
42000;SDS011;27689;48.390;10.856;2023-02-15T09:04:46;38.53;;;24.10;;
42000;SDS011;27689;48.390;10.856;2023-02-15T09:07:30;35.22;;;22.70;;
42000;SDS011;27689;48.390;10.856;2023-02-15T09:10:14;32.60;;;21.35;;
42000;SDS011;27689;48.390;10.856;2023-02-15T09:12:58;29.35;;;19.75;;
42000;SDS011;27689;48.390;10.856;2023-02-15T09:15:42;40.35;;;23.60;;
42000;SDS011;27689;48.390;10.856;2023-02-15T09:18:26;31.17;;;20.02;;
42000;SDS011;27689;48.390;10.856;2023-02-15T09:21:11;24.60;;;16.38;;
42000;SDS011;27689;48.390;10.856;2023-02-15T09:23:58;33.75;;;21.38;;
42000;SDS011;27689;48.390;10.856;2023-02-15T09:26:45;35.67;;;22.90;;
42000;SDS011;27689;48.390;10.856;2023-02-15T09:29:30;34.08;;;21.77;;
42000;SDS011;27689;48.390;10.856;2023-02-15T09:32:14;32.90;;;21.80;;
42000;SDS011;27689;48.390;10.856;2023-02-15T09:34:58;30.95;;;20.85;;
42000;SDS011;27689;48.390;10.856;2023-02-15T09:37:42;33.28;;;22.17;;
42000;SDS011;27689;48.390;10.856;2023-02-15T09:40:26;29.33;;;20.67;;
42000;SDS011;27689;48.390;10.856;2023-02-15T09:46:34;30.88;;;20.45;;
42000;SDS011;27689;48.390;10.856;2023-02-15T10:01:48;28.92;;;19.95;;
42000;SDS011;27689;48.390;10.856;2023-02-15T10:10:35;29.00;;;20.13;;
42000;SDS011;27689;48.390;10.856;2023-02-15T10:17:02;29.92;;;20.15;;
42000;SDS011;27689;48.390;10.856;2023-02-15T10:29:26;25.08;;;18.80;;
42000;SDS011;27689;48.390;10.856;2023-02-15T10:32:26;34.55;;;20.98;;
42000;SDS011;27689;48.390;10.856;2023-02-15T10:38:27;23.23;;;17.73;;
42000;SDS011;27689;48.390;10.856;2023-02-15T10:53:34;26.13;;;18.00;;
42000;SDS011;27689;48.390;10.856;2023-02-15T10:56:23;29.35;;;19.83;;
42000;SDS011;27689;48.390;10.856;2023-02-15T10:59:18;25.63;;;19.52;;
42000;SDS011;27689;48.390;10.856;2023-02-15T11:08:47;25.45;;;19.08;;
42000;SDS011;27689;48.390;10.856;2023-02-15T11:11:39;27.05;;;19.15;;
42000;SDS011;27689;48.390;10.856;2023-02-15T11:14:44;26.52;;;19.15;;
42000;SDS011;27689;48.390;10.856;2023-02-15T11:17:37;25.60;;;20.02;;
42000;SDS011;27689;48.390;10.856;2023-02-15T11:20:27;27.38;;;20.00;;
42000;SDS011;27689;48.390;10.856;2023-02-15T11:23:25;27.90;;;20.55;;
42000;SDS011;27689;48.390;10.856;2023-02-15T11:26:14;27.70;;;19.42;;
42000;SDS011;27689;48.390;10.856;2023-02-15T11:31:54;24.38;;;17.42;;
42000;SDS011;27689;48.390;10.856;2023-02-15T11:34:44;24.63;;;18.17;;
42000;SDS011;27689;48.390;10.856;2023-02-15T11:37:39;22.23;;;16.67;;
42000;SDS011;27689;48.390;10.856;2023-02-15T11:40:34;26.20;;;18.67;;
42000;SDS011;27689;48.390;10.856;2023-02-15T11:46:17;21.77;;;16.00;;
42000;SDS011;27689;48.390;10.856;2023-02-15T11:49:02;24.02;;;17.40;;
42000;SDS011;27689;48.390;10.856;2023-02-15T11:52:06;25.33;;;17.70;;
42000;SDS011;27689;48.390;10.856;2023-02-15T11:54:53;26.77;;;15.98;;
42000;SDS011;27689;48.390;10.856;2023-02-15T11:57:39;21.40;;;16.55;;
42000;SDS011;27689;48.390;10.856;2023-02-15T12:00:36;21.70;;;17.42;;
42000;SDS011;27689;48.390;10.856;2023-02-15T12:04:08;20.50;;;15.23;;
42000;SDS011;27689;48.390;10.856;2023-02-15T12:06:34;20.10;;;16.33;;
42000;SDS011;27689;48.390;10.856;2023-02-15T12:09:38;24.95;;;16.60;;
42000;SDS011;27689;48.390;10.856;2023-02-15T12:12:31;23.73;;;17.15;;
42000;SDS011;27689;48.390;10.856;2023-02-15T12:15:16;18.90;;;15.15;;
42000;SDS011;27689;48.390;10.856;2023-02-15T12:18:17;20.42;;;15.63;;
42000;SDS011;27689;48.390;10.856;2023-02-15T12:21:12;20.83;;;16.35;;
42000;SDS011;27689;48.390;10.856;2023-02-15T12:24:03;20.55;;;16.33;;
42000;SDS011;27689;48.390;10.856;2023-02-15T12:27:02;21.13;;;15.52;;
42000;SDS011;27689;48.390;10.856;2023-02-15T12:29:52;20.23;;;15.48;;
42000;SDS011;27689;48.390;10.856;2023-02-15T12:32:49;23.30;;;16.08;;
42000;SDS011;27689;48.390;10.856;2023-02-15T12:35:36;22.83;;;16.17;;
42000;SDS011;27689;48.390;10.856;2023-02-15T12:38:23;20.00;;;16.42;;
42000;SDS011;27689;48.390;10.856;2023-02-15T12:41:22;18.35;;;14.65;;
42000;SDS011;27689;48.390;10.856;2023-02-15T12:44:21;20.30;;;15.80;;
42000;SDS011;27689;48.390;10.856;2023-02-15T12:50:06;26.58;;;16.77;;
42000;SDS011;27689;48.390;10.856;2023-02-15T12:53:20;22.85;;;16.25;;
42000;SDS011;27689;48.390;10.856;2023-02-15T12:56:08;27.27;;;17.23;;
42000;SDS011;27689;48.390;10.856;2023-02-15T12:59:03;23.40;;;15.98;;
42000;SDS011;27689;48.390;10.856;2023-02-15T13:01:50;21.73;;;15.60;;
42000;SDS011;27689;48.390;10.856;2023-02-15T13:04:46;22.85;;;15.40;;
42000;SDS011;27689;48.390;10.856;2023-02-15T13:07:32;19.88;;;15.15;;
42000;SDS011;27689;48.390;10.856;2023-02-15T13:10:31;24.27;;;15.88;;
42000;SDS011;27689;48.390;10.856;2023-02-15T13:13:19;23.45;;;16.75;;
42000;SDS011;27689;48.390;10.856;2023-02-15T13:16:09;20.67;;;15.35;;
42000;SDS011;27689;48.390;10.856;2023-02-15T13:18:56;19.33;;;15.40;;
42000;SDS011;27689;48.390;10.856;2023-02-15T13:21:49;19.02;;;14.93;;
42000;SDS011;27689;48.390;10.856;2023-02-15T13:27:38;21.77;;;15.50;;
42000;SDS011;27689;48.390;10.856;2023-02-15T13:30:28;22.23;;;14.98;;
42000;SDS011;27689;48.390;10.856;2023-02-15T13:33:33;20.08;;;15.48;;
42000;SDS011;27689;48.390;10.856;2023-02-15T13:36:21;19.13;;;15.88;;
42000;SDS011;27689;48.390;10.856;2023-02-15T13:39:26;20.50;;;16.25;;
42000;SDS011;27689;48.390;10.856;2023-02-15T13:42:20;23.23;;;16.08;;
42000;SDS011;27689;48.390;10.856;2023-02-15T13:54:28;26.85;;;17.55;;
42000;SDS011;27689;48.390;10.856;2023-02-15T14:00:30;21.05;;;16.33;;
42000;SDS011;27689;48.390;10.856;2023-02-15T14:03:27;21.63;;;16.50;;
42000;SDS011;27689;48.390;10.856;2023-02-15T14:16:30;23.52;;;17.70;;
42000;SDS011;27689;48.390;10.856;2023-02-15T14:19:29;27.33;;;17.25;;
42000;SDS011;27689;48.390;10.856;2023-02-15T14:22:24;21.38;;;16.05;;
42000;SDS011;27689;48.390;10.856;2023-02-15T14:28:14;22.98;;;17.85;;
42000;SDS011;27689;48.390;10.856;2023-02-15T14:33:53;22.60;;;17.00;;
42000;SDS011;27689;48.390;10.856;2023-02-15T14:36:40;21.73;;;17.27;;
42000;SDS011;27689;48.390;10.856;2023-02-15T14:39:39;24.83;;;17.53;;
42000;SDS011;27689;48.390;10.856;2023-02-15T14:43:00;23.52;;;18.48;;
42000;SDS011;27689;48.390;10.856;2023-02-15T14:48:46;22.02;;;18.77;;
42000;SDS011;27689;48.390;10.856;2023-02-15T14:59:57;24.98;;;18.95;;
42000;SDS011;27689;48.390;10.856;2023-02-15T15:05:35;24.48;;;19.52;;
42000;SDS011;27689;48.390;10.856;2023-02-15T15:08:36;26.80;;;18.35;;
42000;SDS011;27689;48.390;10.856;2023-02-15T15:14:59;30.25;;;21.05;;
42000;SDS011;27689;48.390;10.856;2023-02-15T15:17:51;23.95;;;19.35;;
42000;SDS011;27689;48.390;10.856;2023-02-15T15:20:49;23.52;;;19.83;;
42000;SDS011;27689;48.390;10.856;2023-02-15T15:23:39;24.75;;;20.15;;
42000;SDS011;27689;48.390;10.856;2023-02-15T15:26:25;25.20;;;18.80;;
42000;SDS011;27689;48.390;10.856;2023-02-15T15:29:11;25.85;;;21.25;;
42000;SDS011;27689;48.390;10.856;2023-02-15T15:31:55;25.27;;;20.10;;
42000;SDS011;27689;48.390;10.856;2023-02-15T15:35:33;30.48;;;22.05;;
42000;SDS011;27689;48.390;10.856;2023-02-15T15:41:48;30.17;;;21.63;;
42000;SDS011;27689;48.390;10.856;2023-02-15T15:44:49;27.25;;;21.73;;
42000;SDS011;27689;48.390;10.856;2023-02-15T15:50:38;24.05;;;19.27;;
42000;SDS011;27689;48.390;10.856;2023-02-15T15:53:25;23.10;;;19.75;;
42000;SDS011;27689;48.390;10.856;2023-02-15T15:56:15;24.27;;;19.63;;
42000;SDS011;27689;48.390;10.856;2023-02-15T15:59:07;29.25;;;20.77;;
42000;SDS011;27689;48.390;10.856;2023-02-15T16:02:04;26.58;;;20.98;;
42000;SDS011;27689;48.390;10.856;2023-02-15T16:04:50;28.52;;;21.98;;
42000;SDS011;27689;48.390;10.856;2023-02-15T16:07:34;27.60;;;20.57;;
42000;SDS011;27689;48.390;10.856;2023-02-15T16:10:28;40.65;;;28.80;;
42000;SDS011;27689;48.390;10.856;2023-02-15T16:13:15;41.85;;;31.45;;
42000;SDS011;27689;48.390;10.856;2023-02-15T16:15:59;41.63;;;29.50;;
42000;SDS011;27689;48.390;10.856;2023-02-15T16:18:43;42.90;;;30.38;;
42000;SDS011;27689;48.390;10.856;2023-02-15T16:21:29;44.47;;;30.00;;
42000;SDS011;27689;48.390;10.856;2023-02-15T16:27:30;40.50;;;28.88;;
42000;SDS011;27689;48.390;10.856;2023-02-15T16:30:32;38.95;;;29.27;;
42000;SDS011;27689;48.390;10.856;2023-02-15T16:33:17;40.50;;;28.45;;
42000;SDS011;27689;48.390;10.856;2023-02-15T16:36:03;42.35;;;30.35;;
42000;SDS011;27689;48.390;10.856;2023-02-15T16:41:35;42.00;;;29.70;;
42000;SDS011;27689;48.390;10.856;2023-02-15T16:44:21;41.00;;;29.42;;
42000;SDS011;27689;48.390;10.856;2023-02-15T16:47:07;41.13;;;31.08;;
42000;SDS011;27689;48.390;10.856;2023-02-15T16:50:01;38.95;;;28.92;;
42000;SDS011;27689;48.390;10.856;2023-02-15T16:52:47;37.10;;;27.65;;
42000;SDS011;27689;48.390;10.856;2023-02-15T16:55:38;39.00;;;28.00;;
42000;SDS011;27689;48.390;10.856;2023-02-15T16:58:58;36.55;;;26.38;;
42000;SDS011;27689;48.390;10.856;2023-02-15T17:01:36;34.25;;;27.25;;
42000;SDS011;27689;48.390;10.856;2023-02-15T17:07:19;35.42;;;26.70;;
42000;SDS011;27689;48.390;10.856;2023-02-15T17:10:15;35.03;;;26.80;;
42000;SDS011;27689;48.390;10.856;2023-02-15T17:13:15;36.60;;;28.40;;
42000;SDS011;27689;48.390;10.856;2023-02-15T17:18:44;35.40;;;27.25;;
42000;SDS011;27689;48.390;10.856;2023-02-15T17:21:33;40.00;;;29.48;;
42000;SDS011;27689;48.390;10.856;2023-02-15T17:27:21;43.03;;;28.48;;
42000;SDS011;27689;48.390;10.856;2023-02-15T17:30:14;38.28;;;27.48;;
42000;SDS011;27689;48.390;10.856;2023-02-15T17:33:04;40.33;;;28.35;;
42000;SDS011;27689;48.390;10.856;2023-02-15T17:36:05;39.60;;;27.75;;
42000;SDS011;27689;48.390;10.856;2023-02-15T17:41:42;41.20;;;29.85;;
42000;SDS011;27689;48.390;10.856;2023-02-15T17:44:26;41.15;;;29.30;;
42000;SDS011;27689;48.390;10.856;2023-02-15T17:47:13;41.40;;;29.63;;
42000;SDS011;27689;48.390;10.856;2023-02-15T17:50:01;40.03;;;28.67;;
42000;SDS011;27689;48.390;10.856;2023-02-15T17:52:48;50.15;;;36.08;;
42000;SDS011;27689;48.390;10.856;2023-02-15T17:55:33;43.55;;;31.55;;
42000;SDS011;27689;48.390;10.856;2023-02-15T17:58:23;45.17;;;31.08;;
42000;SDS011;27689;48.390;10.856;2023-02-15T18:01:11;39.63;;;29.23;;
42000;SDS011;27689;48.390;10.856;2023-02-15T18:04:19;56.03;;;38.92;;
42000;SDS011;27689;48.390;10.856;2023-02-15T18:07:23;51.90;;;34.33;;
42000;SDS011;27689;48.390;10.856;2023-02-15T18:10:26;48.17;;;34.55;;
42000;SDS011;27689;48.390;10.856;2023-02-15T18:13:29;42.65;;;31.98;;
42000;SDS011;27689;48.390;10.856;2023-02-15T18:16:14;39.53;;;29.05;;
42000;SDS011;27689;48.390;10.856;2023-02-15T18:19:06;38.58;;;28.60;;
42000;SDS011;27689;48.390;10.856;2023-02-15T18:21:55;39.58;;;28.73;;
42000;SDS011;27689;48.390;10.856;2023-02-15T18:24:40;38.35;;;28.40;;
42000;SDS011;27689;48.390;10.856;2023-02-15T18:27:24;44.65;;;31.42;;
42000;SDS011;27689;48.390;10.856;2023-02-15T18:30:12;41.97;;;31.67;;
42000;SDS011;27689;48.390;10.856;2023-02-15T18:33:01;44.80;;;32.30;;
42000;SDS011;27689;48.390;10.856;2023-02-15T18:35:48;45.97;;;32.47;;
42000;SDS011;27689;48.390;10.856;2023-02-15T18:38:34;44.28;;;32.10;;
42000;SDS011;27689;48.390;10.856;2023-02-15T18:41:18;44.13;;;32.73;;
42000;SDS011;27689;48.390;10.856;2023-02-15T18:44:08;43.08;;;31.80;;
42000;SDS011;27689;48.390;10.856;2023-02-15T18:46:54;48.65;;;33.83;;
42000;SDS011;27689;48.390;10.856;2023-02-15T18:49:39;43.25;;;32.03;;
42000;SDS011;27689;48.390;10.856;2023-02-15T18:52:31;45.45;;;33.65;;
42000;SDS011;27689;48.390;10.856;2023-02-15T18:55:24;48.20;;;32.97;;
42000;SDS011;27689;48.390;10.856;2023-02-15T18:58:14;41.95;;;30.88;;
42000;SDS011;27689;48.390;10.856;2023-02-15T19:01:00;42.30;;;30.77;;
42000;SDS011;27689;48.390;10.856;2023-02-15T19:03:46;40.40;;;30.33;;
42000;SDS011;27689;48.390;10.856;2023-02-15T19:06:31;45.13;;;31.88;;
42000;SDS011;27689;48.390;10.856;2023-02-15T19:09:19;40.85;;;29.90;;
42000;SDS011;27689;48.390;10.856;2023-02-15T19:12:07;50.72;;;35.30;;
42000;SDS011;27689;48.390;10.856;2023-02-15T19:14:55;45.95;;;33.30;;
42000;SDS011;27689;48.390;10.856;2023-02-15T19:17:39;46.55;;;32.63;;
42000;SDS011;27689;48.390;10.856;2023-02-15T19:20:29;44.47;;;31.88;;